createdAt,value
2023-04-24T00:00:18.671Z,11.60
2023-04-24T00:02:48.266Z,11.60
2023-04-24T00:05:16.158Z,11.60
2023-04-24T00:07:46.388Z,11.60
2023-04-24T00:10:13.762Z,11.50
2023-04-24T00:12:41.147Z,11.50
2023-04-24T00:15:09.294Z,11.60
2023-04-24T00:17:36.627Z,11.60
2023-04-24T00:20:05.699Z,11.50
2023-04-24T00:22:33.100Z,11.50
2023-04-24T00:25:00.484Z,11.50
2023-04-24T00:27:27.850Z,11.50
2023-04-24T00:29:55.248Z,11.50
2023-04-24T00:32:22.569Z,11.50
2023-04-24T00:34:50.161Z,11.50
2023-04-24T00:37:17.557Z,11.40
2023-04-24T00:39:45.848Z,11.40
2023-04-24T00:42:13.494Z,11.40
2023-04-24T00:44:40.878Z,11.40
2023-04-24T00:47:08.682Z,11.40
2023-04-24T00:49:35.988Z,11.40
2023-04-24T00:52:03.435Z,11.30
2023-04-24T00:54:30.829Z,11.40
2023-04-24T00:56:58.190Z,11.30
2023-04-24T00:59:25.506Z,11.30
2023-04-24T01:01:52.890Z,11.30
2023-04-24T01:04:20.406Z,11.30
2023-04-24T01:06:49.377Z,11.30
2023-04-24T01:09:17.959Z,11.30
2023-04-24T01:11:45.293Z,11.30
2023-04-24T01:14:13.060Z,11.30
2023-04-24T01:16:40.417Z,11.30
2023-04-24T01:19:07.840Z,11.20
2023-04-24T01:21:37.681Z,11.20
2023-04-24T01:24:06.022Z,11.20
2023-04-24T01:26:33.662Z,11.20
2023-04-24T01:29:01.061Z,11.20
2023-04-24T01:31:28.449Z,11.20
2023-04-24T01:33:56.069Z,11.20
2023-04-24T01:36:24.709Z,11.20
2023-04-24T01:38:53.929Z,11.10
2023-04-24T01:41:21.522Z,11.10
2023-04-24T01:43:49.155Z,11.10
2023-04-24T01:46:16.651Z,11.10
2023-04-24T01:48:43.979Z,11.10
2023-04-24T01:51:11.304Z,11.10
2023-04-24T01:53:38.643Z,11.10
2023-04-24T01:56:06.267Z,11.10
2023-04-24T01:58:33.597Z,11.10
2023-04-24T02:01:01.429Z,11.10
2023-04-24T02:03:29.180Z,11.00
2023-04-24T02:05:58.933Z,11.00
2023-04-24T02:08:26.389Z,11.00
2023-04-24T02:10:53.706Z,11.00
2023-04-24T02:13:21.087Z,11.00
2023-04-24T02:15:48.494Z,10.90
2023-04-24T02:18:16.608Z,11.00
2023-04-24T02:20:43.964Z,11.00
2023-04-24T02:23:11.342Z,10.90
2023-04-24T02:25:39.646Z,11.00
2023-04-24T02:28:07.336Z,11.00
2023-04-24T02:30:35.389Z,11.00
2023-04-24T02:33:02.782Z,11.00
2023-04-24T02:35:30.839Z,11.00
2023-04-24T02:37:58.327Z,11.00
2023-04-24T02:40:25.702Z,11.00
2023-04-24T02:42:53.055Z,11.00
2023-04-24T02:45:20.520Z,11.00
2023-04-24T02:47:47.891Z,11.00
2023-04-24T02:50:15.222Z,11.00
2023-04-24T02:52:42.626Z,11.00
2023-04-24T02:55:10.085Z,11.00
2023-04-24T02:57:37.511Z,11.00
2023-04-24T03:00:08.086Z,11.00
2023-04-24T03:02:35.677Z,10.90
2023-04-24T03:05:03.456Z,10.90
2023-04-24T03:07:30.828Z,10.90
2023-04-24T03:10:00.390Z,10.90
2023-04-24T03:12:27.817Z,10.80
2023-04-24T03:14:56.162Z,10.80
2023-04-24T03:17:23.502Z,10.80
2023-04-24T03:19:50.847Z,10.80
2023-04-24T03:22:18.945Z,10.80
2023-04-24T03:24:46.367Z,10.80
2023-04-24T03:27:16.966Z,10.80
2023-04-24T03:30:04.903Z,10.70
2023-04-24T03:32:54.958Z,10.70
2023-04-24T03:35:27.007Z,10.70
2023-04-24T03:37:54.854Z,10.70
2023-04-24T03:40:54.408Z,10.60
2023-04-24T03:43:44.302Z,10.60
2023-04-24T03:46:11.736Z,10.60
2023-04-24T03:48:43.616Z,10.60
2023-04-24T03:51:11.919Z,10.60
2023-04-24T03:53:42.841Z,10.50
2023-04-24T03:56:11.990Z,10.50
2023-04-24T03:58:39.343Z,10.50
2023-04-24T04:01:06.768Z,10.50
2023-04-24T04:03:49.054Z,10.50
2023-04-24T04:06:20.558Z,10.60
2023-04-24T04:08:48.165Z,10.50
2023-04-24T04:11:15.621Z,10.50
2023-04-24T04:13:43.135Z,10.50
2023-04-24T04:16:10.616Z,10.50
2023-04-24T04:18:38.770Z,10.50
2023-04-24T04:21:07.932Z,10.60
2023-04-24T04:23:35.930Z,10.60
2023-04-24T04:26:15.197Z,10.60
2023-04-24T04:29:08.503Z,10.60
2023-04-24T04:31:40.039Z,10.50
2023-04-24T04:34:12.728Z,10.60
2023-04-24T04:36:42.321Z,10.60
2023-04-24T04:39:22.416Z,10.50
2023-04-24T04:42:21.733Z,10.50
2023-04-24T04:44:51.411Z,10.50
2023-04-24T04:47:25.840Z,10.50
2023-04-24T04:49:55.252Z,10.50
2023-04-24T04:52:27.627Z,10.50
2023-04-24T04:55:16.132Z,10.60
2023-04-24T04:58:03.733Z,10.60
2023-04-24T05:00:36.430Z,10.60
2023-04-24T05:03:20.027Z,10.60
2023-04-24T05:05:50.757Z,10.60
2023-04-24T05:08:27.259Z,10.60
2023-04-24T05:10:56.124Z,10.60
2023-04-24T05:13:32.171Z,10.60
2023-04-24T05:16:09.343Z,10.60
2023-04-24T05:18:36.967Z,10.60
2023-04-24T05:21:06.262Z,10.70
2023-04-24T05:23:33.936Z,10.70
2023-04-24T05:26:01.832Z,10.70
2023-04-24T05:28:30.632Z,10.70
2023-04-24T05:31:07.506Z,10.70
2023-04-24T05:33:35.782Z,10.70
2023-04-24T05:36:03.174Z,10.70
2023-04-24T05:38:30.658Z,10.70
2023-04-24T05:40:58.062Z,10.70
2023-04-24T05:43:26.158Z,10.70
2023-04-24T05:45:54.518Z,10.80
2023-04-24T05:48:23.419Z,10.80
2023-04-24T05:50:50.768Z,10.80
2023-04-24T05:53:18.393Z,10.80
2023-04-24T05:55:46.006Z,10.80
2023-04-24T05:58:13.484Z,10.90
2023-04-24T06:00:43.512Z,10.80
2023-04-24T06:03:11.207Z,10.90
2023-04-24T06:05:38.715Z,10.90
2023-04-24T06:08:06.036Z,10.90
2023-04-24T06:10:37.297Z,10.90
2023-04-24T06:13:05.828Z,11.00
2023-04-24T06:15:34.889Z,11.00
2023-04-24T06:18:13.968Z,11.10
2023-04-24T06:20:42.722Z,11.10
2023-04-24T06:23:10.837Z,11.20
2023-04-24T06:25:38.681Z,11.20
2023-04-24T06:28:06.110Z,11.30
2023-04-24T06:30:33.471Z,11.30
2023-04-24T06:33:09.261Z,11.30
2023-04-24T06:35:46.533Z,11.30
2023-04-24T06:38:13.844Z,11.30
2023-04-24T06:40:41.493Z,11.30
2023-04-24T06:43:08.815Z,11.40
2023-04-24T06:45:36.110Z,11.40
2023-04-24T06:48:03.827Z,11.40
2023-04-24T06:50:31.344Z,11.50
2023-04-24T06:52:58.661Z,11.50
2023-04-24T06:55:26.171Z,11.60
2023-04-24T06:57:53.539Z,11.60
2023-04-24T07:00:21.089Z,11.70
2023-04-24T07:02:48.491Z,11.70
2023-04-24T07:05:16.335Z,11.80
2023-04-24T07:07:44.443Z,11.80
2023-04-24T07:10:11.900Z,11.90
2023-04-24T07:12:39.197Z,11.90
2023-04-24T07:15:08.843Z,12.00
2023-04-24T07:17:36.405Z,12.10
2023-04-24T07:20:04.185Z,12.10
2023-04-24T07:22:31.507Z,12.20
2023-04-24T07:24:58.866Z,12.20
2023-04-24T07:27:27.485Z,12.20
2023-04-24T07:29:54.859Z,12.20
2023-04-24T07:32:22.201Z,12.20
2023-04-24T07:34:49.502Z,12.20
2023-04-24T07:37:16.857Z,12.20
2023-04-24T07:39:44.429Z,12.30
2023-04-24T07:42:12.114Z,12.40
2023-04-24T07:44:39.472Z,12.40
2023-04-24T07:47:06.978Z,12.30
2023-04-24T07:49:35.813Z,12.30
2023-04-24T07:52:03.627Z,12.20
2023-04-24T07:54:31.146Z,12.20
2023-04-24T07:56:58.487Z,12.20
2023-04-24T07:59:26.104Z,12.10
2023-04-24T08:01:53.418Z,12.20
2023-04-24T08:04:21.034Z,12.20
2023-04-24T08:06:49.039Z,12.30
2023-04-24T08:09:16.416Z,12.40
2023-04-24T08:11:44.640Z,12.50
2023-04-24T08:14:14.088Z,12.40
2023-04-24T08:16:41.705Z,12.40
2023-04-24T08:19:09.204Z,12.40
2023-04-24T08:21:36.567Z,12.50
2023-04-24T08:24:06.216Z,12.40
2023-04-24T08:26:33.732Z,12.40
2023-04-24T08:29:01.102Z,12.30
2023-04-24T08:31:28.526Z,12.20
2023-04-24T08:33:55.960Z,12.30
2023-04-24T08:36:28.233Z,12.20
2023-04-24T08:39:00.490Z,12.20
2023-04-24T08:41:28.385Z,12.10
2023-04-24T08:43:56.098Z,12.10
2023-04-24T08:46:23.515Z,11.90
2023-04-24T08:48:51.206Z,11.80
2023-04-24T08:51:18.529Z,11.70
2023-04-24T08:53:46.354Z,11.70
2023-04-24T08:56:14.222Z,11.70
2023-04-24T08:58:41.938Z,11.70
2023-04-24T09:01:09.264Z,11.70
2023-04-24T09:03:36.807Z,11.70
2023-04-24T09:06:04.324Z,11.60
2023-04-24T09:08:31.738Z,11.50
2023-04-24T09:11:00.005Z,11.50
2023-04-24T09:13:27.322Z,11.40
2023-04-24T09:15:55.208Z,11.30
2023-04-24T09:18:22.622Z,11.30
2023-04-24T09:21:03.849Z,11.40
2023-04-24T09:23:31.860Z,11.40
2023-04-24T09:26:01.117Z,11.60
2023-04-24T09:28:37.228Z,11.60
2023-04-24T09:31:05.396Z,11.70
2023-04-24T09:33:32.764Z,11.70
2023-04-24T09:36:00.334Z,11.80
2023-04-24T09:38:35.476Z,11.90
2023-04-24T09:41:04.565Z,12.00
2023-04-24T09:43:32.244Z,12.00
2023-04-24T09:46:00.232Z,12.10
2023-04-24T09:48:38.126Z,12.10
2023-04-24T09:51:08.076Z,12.10
2023-04-24T09:53:35.772Z,12.20
2023-04-24T09:56:10.317Z,12.30
2023-04-24T09:58:38.011Z,12.40
2023-04-24T10:01:05.861Z,12.40
2023-04-24T10:03:34.370Z,12.40
2023-04-24T10:06:02.546Z,12.50
2023-04-24T10:08:36.781Z,12.60
2023-04-24T10:11:04.195Z,12.70
2023-04-24T10:13:31.584Z,12.80
2023-04-24T10:15:58.890Z,12.90
2023-04-24T10:18:26.339Z,13.00
2023-04-24T10:20:55.837Z,13.00
2023-04-24T10:23:24.209Z,13.00
2023-04-24T10:25:51.624Z,13.00
2023-04-24T10:28:19.876Z,13.00
2023-04-24T10:30:47.264Z,12.90
2023-04-24T10:33:14.623Z,12.90
2023-04-24T10:35:49.894Z,13.00
2023-04-24T10:38:19.829Z,13.10
2023-04-24T10:40:47.204Z,13.20
2023-04-24T10:43:17.397Z,13.30
2023-04-24T10:45:50.577Z,13.40
2023-04-24T10:48:17.909Z,13.30
2023-04-24T10:50:47.030Z,13.20
2023-04-24T10:53:22.032Z,13.10
2023-04-24T10:55:51.188Z,13.00
2023-04-24T10:58:23.240Z,12.70
2023-04-24T11:01:00.542Z,12.40
2023-04-24T11:03:32.387Z,12.00
2023-04-24T11:06:03.967Z,11.80
2023-04-24T11:08:33.150Z,11.60
2023-04-24T11:11:05.379Z,11.50
2023-04-24T11:13:54.694Z,11.50
2023-04-24T11:16:33.792Z,11.50
2023-04-24T11:19:02.081Z,11.60
2023-04-24T11:21:49.228Z,11.70
2023-04-24T11:24:33.907Z,11.90
2023-04-24T11:27:05.064Z,12.10
2023-04-24T11:29:46.078Z,12.30
2023-04-24T11:32:35.042Z,12.40
2023-04-24T11:35:02.403Z,12.50
2023-04-24T11:37:39.954Z,12.70
2023-04-24T11:40:09.327Z,12.80
2023-04-24T11:42:37.811Z,12.90
2023-04-24T11:45:12.581Z,12.90
2023-04-24T11:47:40.042Z,12.90
2023-04-24T11:50:09.389Z,12.90
2023-04-24T11:52:41.083Z,13.00
2023-04-24T11:55:27.972Z,13.20
2023-04-24T11:57:59.720Z,13.30
2023-04-24T12:00:28.845Z,13.40
2023-04-24T12:03:26.258Z,13.30
2023-04-24T12:05:53.854Z,13.30
2023-04-24T12:08:30.483Z,13.30
2023-04-24T12:10:57.976Z,13.30
2023-04-24T12:13:26.730Z,13.30
2023-04-24T12:15:54.121Z,13.30
2023-04-24T12:18:24.949Z,13.30
2023-04-24T12:20:52.334Z,13.30
2023-04-24T12:23:38.759Z,13.30
2023-04-24T12:26:06.389Z,13.40
2023-04-24T12:28:37.922Z,13.40
2023-04-24T12:31:05.698Z,13.50
2023-04-24T12:33:36.575Z,13.50
2023-04-24T12:36:04.121Z,13.60
2023-04-24T12:38:31.552Z,13.70
2023-04-24T12:41:09.411Z,13.90
2023-04-24T12:43:37.112Z,14.00
2023-04-24T12:46:05.106Z,14.30
2023-04-24T12:48:33.172Z,14.40
2023-04-24T12:51:02.626Z,14.60
2023-04-24T12:53:32.738Z,14.70
2023-04-24T12:56:00.158Z,14.70
2023-04-24T12:58:27.503Z,14.70
2023-04-24T13:00:55.336Z,14.70
2023-04-24T13:03:23.687Z,14.80
2023-04-24T13:05:51.216Z,14.80
2023-04-24T13:08:18.528Z,14.70
2023-04-24T13:10:46.441Z,14.70
2023-04-24T13:13:13.975Z,14.50
2023-04-24T13:15:41.393Z,14.30
2023-04-24T13:18:08.787Z,14.10
2023-04-24T13:20:36.632Z,13.90
2023-04-24T13:23:04.305Z,13.90
2023-04-24T13:25:36.176Z,13.90
2023-04-24T13:28:03.511Z,13.90
2023-04-24T13:30:30.973Z,13.90
2023-04-24T13:32:58.356Z,13.90
2023-04-24T13:35:25.752Z,13.90
2023-04-24T13:37:53.088Z,14.10
2023-04-24T13:40:20.765Z,14.20
2023-04-24T13:42:48.133Z,14.30
2023-04-24T13:45:24.880Z,14.40
2023-04-24T13:47:53.470Z,14.40
2023-04-24T13:50:21.556Z,14.30
2023-04-24T13:52:48.882Z,14.30
2023-04-24T13:55:16.367Z,14.30
2023-04-24T13:57:43.982Z,14.30
2023-04-24T14:00:12.043Z,14.30
2023-04-24T14:02:39.612Z,14.30
2023-04-24T14:05:07.628Z,14.30
2023-04-24T14:07:35.090Z,14.20
2023-04-24T14:10:02.406Z,14.20
2023-04-24T14:12:29.717Z,14.30
2023-04-24T14:14:57.048Z,14.30
2023-04-24T14:17:24.427Z,14.30
2023-04-24T14:19:53.028Z,14.20
2023-04-24T14:22:21.185Z,14.30
2023-04-24T14:24:48.702Z,14.20
2023-04-24T14:27:16.050Z,14.20
2023-04-24T14:29:43.490Z,14.30
2023-04-24T14:32:10.815Z,14.40
2023-04-24T14:34:38.175Z,14.40
2023-04-24T14:37:05.536Z,14.40
2023-04-24T14:39:32.845Z,14.40
2023-04-24T14:42:00.857Z,14.40
2023-04-24T14:44:28.317Z,14.50
2023-04-24T14:46:55.738Z,14.60
2023-04-24T14:49:24.282Z,14.40
2023-04-24T14:51:51.631Z,14.40
2023-04-24T14:54:19.071Z,14.30
2023-04-24T14:56:46.426Z,14.30
2023-04-24T14:59:14.159Z,14.20
2023-04-24T15:01:41.508Z,14.20
2023-04-24T15:04:08.986Z,14.30
2023-04-24T15:06:36.643Z,14.30
2023-04-24T15:09:04.354Z,14.40
2023-04-24T15:11:31.725Z,14.40
2023-04-24T15:13:59.067Z,14.40
2023-04-24T15:16:26.460Z,14.40
2023-04-24T15:18:53.833Z,14.30
2023-04-24T15:21:21.183Z,14.30
2023-04-24T15:23:48.743Z,14.30
2023-04-24T15:26:16.310Z,14.30
2023-04-24T15:28:43.842Z,14.30
2023-04-24T15:31:11.220Z,14.30
2023-04-24T15:33:38.673Z,14.40
2023-04-24T15:36:06.116Z,14.50
2023-04-24T15:38:33.460Z,14.60
2023-04-24T15:41:00.873Z,14.60
2023-04-24T15:43:31.972Z,14.50
2023-04-24T15:45:59.390Z,14.50
2023-04-24T15:48:26.900Z,14.30
2023-04-24T15:50:54.252Z,14.40
2023-04-24T15:53:24.629Z,14.50
2023-04-24T15:55:52.443Z,14.60
2023-04-24T15:58:20.785Z,14.60
2023-04-24T16:00:48.148Z,14.50
2023-04-24T16:03:15.888Z,14.30
2023-04-24T16:05:43.374Z,14.20
2023-04-24T16:08:10.871Z,14.20
2023-04-24T16:10:38.172Z,14.20
2023-04-24T16:13:06.382Z,14.30
2023-04-24T16:15:36.936Z,14.40
2023-04-24T16:18:04.439Z,14.30
2023-04-24T16:20:31.840Z,14.20
2023-04-24T16:22:59.178Z,14.00
2023-04-24T16:25:26.494Z,13.90
2023-04-24T16:27:53.953Z,13.80
2023-04-24T16:30:21.433Z,13.70
2023-04-24T16:32:48.786Z,13.70
2023-04-24T16:35:16.262Z,13.70
2023-04-24T16:37:43.622Z,13.70
2023-04-24T16:40:12.321Z,13.60
2023-04-24T16:42:39.773Z,13.60
2023-04-24T16:45:07.912Z,13.50
2023-04-24T16:47:35.957Z,13.40
2023-04-24T16:50:03.374Z,13.30
2023-04-24T16:52:30.884Z,13.10
2023-04-24T16:54:58.781Z,13.10
2023-04-24T16:57:26.145Z,13.00
2023-04-24T16:59:53.491Z,12.90
2023-04-24T17:02:20.839Z,13.00
2023-04-24T17:04:48.264Z,13.10
2023-04-24T17:07:15.697Z,13.10
2023-04-24T17:09:43.177Z,13.10
2023-04-24T17:12:11.019Z,13.20
2023-04-24T17:14:38.424Z,13.20
2023-04-24T17:17:05.807Z,13.20
2023-04-24T17:19:33.254Z,13.10
2023-04-24T17:22:00.709Z,13.10
2023-04-24T17:24:33.773Z,13.00
2023-04-24T17:27:07.947Z,13.00
2023-04-24T17:29:39.441Z,12.90
2023-04-24T17:32:06.841Z,12.90
2023-04-24T17:34:34.147Z,12.80
2023-04-24T17:37:02.177Z,12.70
2023-04-24T17:39:29.483Z,12.70
2023-04-24T17:41:56.792Z,12.70
2023-04-24T17:44:24.145Z,12.60
2023-04-24T17:46:51.591Z,12.50
2023-04-24T17:49:18.937Z,12.40
2023-04-24T17:51:46.278Z,12.40
2023-04-24T17:54:13.609Z,12.30
2023-04-24T17:56:41.264Z,12.30
2023-04-24T17:59:08.582Z,12.20
2023-04-24T18:01:35.962Z,12.20
2023-04-24T18:04:03.375Z,12.20
2023-04-24T18:06:30.899Z,12.10
2023-04-24T18:08:58.234Z,12.10
2023-04-24T18:11:25.906Z,12.10
2023-04-24T18:13:53.515Z,12.00
2023-04-24T18:16:21.979Z,12.00
2023-04-24T18:18:50.830Z,12.00
2023-04-24T18:21:18.301Z,11.90
2023-04-24T18:23:46.292Z,11.90
2023-04-24T18:26:16.958Z,11.90
2023-04-24T18:28:44.682Z,11.80
2023-04-24T18:31:12.034Z,11.80
2023-04-24T18:33:39.419Z,11.80
2023-04-24T18:36:06.768Z,11.80
2023-04-24T18:38:34.054Z,11.70
2023-04-24T18:41:01.468Z,11.70
2023-04-24T18:43:28.812Z,11.60
2023-04-24T18:45:56.173Z,11.60
2023-04-24T18:48:23.537Z,11.50
2023-04-24T18:50:50.942Z,11.50
2023-04-24T18:53:18.394Z,11.50
2023-04-24T18:55:45.865Z,11.50
2023-04-24T18:58:13.363Z,11.50
2023-04-24T19:00:40.750Z,11.50
2023-04-24T19:03:09.260Z,11.40
2023-04-24T19:05:36.815Z,11.40
2023-04-24T19:08:04.131Z,11.40
2023-04-24T19:10:33.294Z,11.40
2023-04-24T19:13:01.823Z,11.40
2023-04-24T19:15:29.928Z,11.40
2023-04-24T19:17:57.649Z,11.30
2023-04-24T19:20:26.095Z,11.30
2023-04-24T19:22:53.402Z,11.30
2023-04-24T19:25:20.815Z,11.30
2023-04-24T19:27:48.189Z,11.30
2023-04-24T19:30:15.591Z,11.20
2023-04-24T19:32:42.940Z,11.20
2023-04-24T19:35:10.292Z,11.20
2023-04-24T19:37:37.728Z,11.10
2023-04-24T19:40:05.705Z,11.10
2023-04-24T19:42:43.205Z,11.10
2023-04-24T19:45:12.645Z,11.10
2023-04-24T19:47:40.115Z,11.00
2023-04-24T19:50:07.908Z,11.00
2023-04-24T19:52:35.389Z,10.90
2023-04-24T19:55:02.785Z,10.90
2023-04-24T19:57:30.201Z,10.90
2023-04-24T19:59:57.527Z,10.90
2023-04-24T20:02:25.274Z,10.80
2023-04-24T20:04:52.914Z,10.80
2023-04-24T20:07:20.545Z,10.80
2023-04-24T20:09:47.885Z,10.70
2023-04-24T20:12:16.105Z,10.70
2023-04-24T20:14:43.479Z,10.70
2023-04-24T20:17:11.064Z,10.70
2023-04-24T20:19:40.924Z,10.70
2023-04-24T20:22:08.879Z,10.60
2023-04-24T20:24:36.660Z,10.60
2023-04-24T20:27:04.367Z,10.70
2023-04-24T20:29:31.734Z,10.70
2023-04-24T20:31:59.406Z,10.60
2023-04-24T20:34:26.980Z,10.60
2023-04-24T20:36:56.501Z,10.60
2023-04-24T20:39:23.835Z,10.60
2023-04-24T20:41:51.277Z,10.60
2023-04-24T20:44:18.711Z,10.60
2023-04-24T20:46:46.063Z,10.60
2023-04-24T20:49:13.370Z,10.60
2023-04-24T20:51:40.686Z,10.60
2023-04-24T20:54:08.052Z,10.60
2023-04-24T20:56:35.403Z,10.60
2023-04-24T20:59:02.750Z,10.60
2023-04-24T21:01:30.480Z,10.60
2023-04-24T21:03:58.020Z,10.60
2023-04-24T21:06:25.378Z,10.60
2023-04-24T21:08:52.695Z,10.60
2023-04-24T21:11:20.059Z,10.50
2023-04-24T21:13:47.508Z,10.50
2023-04-24T21:16:14.956Z,10.50
2023-04-24T21:18:42.352Z,10.50
2023-04-24T21:21:09.704Z,10.50
2023-04-24T21:23:37.203Z,10.50
2023-04-24T21:26:04.598Z,10.40
2023-04-24T21:28:31.934Z,10.40
2023-04-24T21:30:59.257Z,10.40
2023-04-24T21:33:26.619Z,10.30
2023-04-24T21:35:54.019Z,10.30
2023-04-24T21:38:24.403Z,10.30
2023-04-24T21:40:52.230Z,10.30
2023-04-24T21:43:25.405Z,10.30
2023-04-24T21:45:58.050Z,10.20
2023-04-24T21:48:25.453Z,10.20
2023-04-24T21:50:52.750Z,10.20
2023-04-24T21:53:20.021Z,10.20
2023-04-24T21:55:47.520Z,10.10
2023-04-24T21:58:14.831Z,10.10
2023-04-24T22:00:42.137Z,10.10
2023-04-24T22:03:09.612Z,10.10
2023-04-24T22:05:37.112Z,10.10
2023-04-24T22:08:05.476Z,10.10
2023-04-24T22:10:32.957Z,10.10
2023-04-24T22:13:00.306Z,10.10
2023-04-24T22:15:27.611Z,10.10
2023-04-24T22:17:55.066Z,10.10
2023-04-24T22:20:22.692Z,10.10
2023-04-24T22:22:50.034Z,10.00
2023-04-24T22:25:18.074Z,10.00
2023-04-24T22:27:45.479Z,10.00
2023-04-24T22:30:12.938Z,10.00
2023-04-24T22:32:40.676Z,10.00
2023-04-24T22:35:08.754Z,9.90
2023-04-24T22:37:36.412Z,9.90
2023-04-24T22:40:05.151Z,9.90
2023-04-24T22:42:32.454Z,9.80
2023-04-24T22:44:59.784Z,9.80
2023-04-24T22:47:27.076Z,9.80
2023-04-24T22:49:55.144Z,9.80
2023-04-24T22:52:22.522Z,9.80
2023-04-24T22:54:49.905Z,9.80
2023-04-24T22:57:17.253Z,9.80
2023-04-24T22:59:44.547Z,9.80
2023-04-24T23:02:12.104Z,9.80
2023-04-24T23:04:39.474Z,9.80
2023-04-24T23:07:06.771Z,9.90
2023-04-24T23:09:34.098Z,9.90
2023-04-24T23:12:01.590Z,9.90
2023-04-24T23:14:29.788Z,9.90
2023-04-24T23:16:57.112Z,9.80
2023-04-24T23:19:24.454Z,9.90
2023-04-24T23:21:51.959Z,9.90
2023-04-24T23:24:19.274Z,9.90
2023-04-24T23:26:46.571Z,9.80
2023-04-24T23:29:13.845Z,9.80
2023-04-24T23:31:41.188Z,9.90
2023-04-24T23:34:08.558Z,9.80
2023-04-24T23:36:36.604Z,9.80
2023-04-24T23:39:05.328Z,9.80
2023-04-24T23:41:32.633Z,9.80
2023-04-24T23:43:59.925Z,9.80
2023-04-24T23:46:27.301Z,9.80
2023-04-24T23:48:54.623Z,9.80
2023-04-24T23:51:21.969Z,9.80
2023-04-24T23:53:49.315Z,9.70
2023-04-24T23:56:16.944Z,9.70
2023-04-24T23:58:44.221Z,9.70
